Gowen, Oklahoma
Current Conditions -  °F | °C
As of 3:53 PM on Sunday 23 Nov 2014 (Local Time) from KMLC Reporting Station
Clear Clear  
Wind Chill: 70°   Ceiling: Unl
Heat Index: 70°   Visibility: 10mi
Dew Point: 43°   Wind: 13mph
Humidity: 38%   Direction: 230°SW
Pressure: 29.31"   Gusts: NA
Location:  34.88°N, 95.48°W
Report Text: KMLC 232153Z AUTO 23011KT 10SM CLR 21/06 A2931 RMK AO2 SLP919 T02110061
Loading
Personal Weather Stations






























Interactive Weather Map New forecast layout! Learn more

10-Day Weather Forecast

Advertisements
Track Severe Weather on mobile